createdAt,value
2023-05-14T00:00:53.425Z,10.90
2023-05-14T00:03:20.526Z,10.90
2023-05-14T00:05:48.515Z,11.00
2023-05-14T00:08:15.392Z,10.80
2023-05-14T00:10:42.248Z,10.80
2023-05-14T00:13:09.089Z,10.80
2023-05-14T00:15:35.956Z,10.70
2023-05-14T00:18:02.859Z,10.60
2023-05-14T00:20:29.712Z,10.60
2023-05-14T00:22:56.797Z,10.60
2023-05-14T00:25:23.695Z,10.60
2023-05-14T00:27:50.441Z,10.60
2023-05-14T00:30:17.344Z,10.50
2023-05-14T00:32:44.496Z,10.50
2023-05-14T00:35:11.320Z,10.40
2023-05-14T00:37:38.279Z,10.40
2023-05-14T00:40:06.992Z,10.30
2023-05-14T00:42:34.461Z,10.40
2023-05-14T00:45:01.241Z,10.30
2023-05-14T00:47:28.413Z,10.20
2023-05-14T00:49:55.400Z,10.10
2023-05-14T00:52:22.298Z,10.10
2023-05-14T00:54:49.837Z,10.10
2023-05-14T00:57:16.660Z,10.20
2023-05-14T00:59:43.459Z,10.10
2023-05-14T01:02:10.785Z,10.00
2023-05-14T01:04:39.117Z,10.00
2023-05-14T01:07:36.103Z,10.00
2023-05-14T01:10:11.571Z,10.00
2023-05-14T01:13:04.161Z,10.00
2023-05-14T01:15:35.597Z,10.00
2023-05-14T01:18:07.323Z,9.90
2023-05-14T01:20:34.541Z,9.90
2023-05-14T01:23:01.807Z,9.80
2023-05-14T01:25:30.508Z,9.90
2023-05-14T01:28:20.489Z,9.90
2023-05-14T01:31:05.592Z,9.70
2023-05-14T01:33:35.078Z,9.70
2023-05-14T01:36:02.857Z,9.70
2023-05-14T01:38:31.747Z,9.70
2023-05-14T01:41:00.149Z,9.70
2023-05-14T01:43:27.487Z,9.70
2023-05-14T01:45:55.530Z,9.70
2023-05-14T01:48:22.475Z,9.60
2023-05-14T01:50:49.269Z,9.60
2023-05-14T01:53:16.091Z,9.50
2023-05-14T01:55:42.907Z,9.50
2023-05-14T01:58:09.896Z,9.40
2023-05-14T02:00:36.705Z,9.50
2023-05-14T02:03:03.815Z,9.40
2023-05-14T02:05:30.912Z,9.50
2023-05-14T02:07:57.967Z,9.40
2023-05-14T02:10:25.467Z,9.30
2023-05-14T02:12:52.859Z,9.20
2023-05-14T02:15:19.622Z,9.20
2023-05-14T02:17:46.855Z,9.30
2023-05-14T02:20:13.808Z,9.30
2023-05-14T02:22:42.303Z,9.20
2023-05-14T02:25:09.854Z,9.20
2023-05-14T02:27:36.656Z,9.20
2023-05-14T02:30:06.187Z,9.30
2023-05-14T02:32:33.231Z,9.10
2023-05-14T02:35:00.072Z,9.10
2023-05-14T02:37:27.407Z,9.10
2023-05-14T02:39:54.367Z,9.10
2023-05-14T02:42:22.767Z,9.10
2023-05-14T02:44:49.805Z,9.00
2023-05-14T02:47:16.568Z,9.00
2023-05-14T02:49:43.550Z,9.10
2023-05-14T02:52:10.357Z,9.00
2023-05-14T02:54:37.188Z,9.10
2023-05-14T02:57:04.035Z,9.00
2023-05-14T02:59:31.880Z,9.10
2023-05-14T03:01:59.275Z,9.10
2023-05-14T03:04:26.531Z,9.00
2023-05-14T03:06:53.327Z,8.90
2023-05-14T03:09:20.518Z,8.90
2023-05-14T03:11:47.338Z,8.90
2023-05-14T03:14:14.103Z,9.00
2023-05-14T03:16:42.315Z,9.00
2023-05-14T03:19:09.997Z,9.10
2023-05-14T03:21:37.097Z,9.00
2023-05-14T03:24:03.988Z,9.10
2023-05-14T03:26:30.712Z,9.20
2023-05-14T03:28:57.775Z,9.20
2023-05-14T03:31:24.983Z,9.10
2023-05-14T03:33:52.219Z,9.10
2023-05-14T03:36:18.951Z,9.20
2023-05-14T03:38:47.762Z,9.20
2023-05-14T03:41:15.351Z,9.10
2023-05-14T03:43:42.587Z,9.10
2023-05-14T03:46:09.512Z,9.20
2023-05-14T03:48:36.484Z,9.20
2023-05-14T03:51:04.730Z,9.30
2023-05-14T03:53:31.510Z,9.40
2023-05-14T03:55:58.242Z,9.30
2023-05-14T03:58:25.058Z,9.30
2023-05-14T04:00:53.175Z,9.40
2023-05-14T04:03:20.079Z,9.40
2023-05-14T04:05:47.268Z,9.40
2023-05-14T04:08:14.098Z,9.50
2023-05-14T04:10:41.000Z,9.50
2023-05-14T04:13:07.778Z,9.50
2023-05-14T04:15:39.145Z,9.60
2023-05-14T04:18:06.175Z,9.60
2023-05-14T04:20:32.955Z,9.60
2023-05-14T04:23:00.172Z,9.60
2023-05-14T04:25:27.653Z,9.70
2023-05-14T04:27:54.844Z,9.70
2023-05-14T04:30:21.806Z,9.60
2023-05-14T04:32:48.830Z,9.70
2023-05-14T04:35:15.798Z,9.70
2023-05-14T04:37:42.623Z,9.70
2023-05-14T04:40:13.084Z,9.80
2023-05-14T04:42:39.883Z,9.80
2023-05-14T04:45:07.151Z,9.80
2023-05-14T04:47:34.031Z,9.90
2023-05-14T04:50:00.848Z,9.90
2023-05-14T04:52:27.880Z,10.00
2023-05-14T04:54:54.758Z,9.90
2023-05-14T04:57:21.750Z,10.00
2023-05-14T04:59:48.638Z,9.90
2023-05-14T05:02:15.385Z,9.90
2023-05-14T05:04:42.185Z,9.80
2023-05-14T05:07:08.956Z,10.00
2023-05-14T05:09:35.842Z,10.00
2023-05-14T05:12:02.702Z,10.10
2023-05-14T05:14:29.745Z,10.20
2023-05-14T05:16:57.094Z,10.10
2023-05-14T05:19:35.685Z,10.20
2023-05-14T05:22:09.635Z,10.30
2023-05-14T05:24:36.351Z,10.40
2023-05-14T05:27:03.159Z,10.50
2023-05-14T05:29:29.977Z,10.50
2023-05-14T05:31:56.848Z,10.60
2023-05-14T05:34:23.675Z,10.60
2023-05-14T05:36:50.950Z,10.70
2023-05-14T05:39:17.787Z,10.80
2023-05-14T05:41:44.533Z,10.80
2023-05-14T05:44:11.635Z,10.80
2023-05-14T05:46:38.413Z,10.90
2023-05-14T05:49:05.225Z,10.90
2023-05-14T05:51:33.064Z,10.90
2023-05-14T05:53:59.867Z,10.90
2023-05-14T05:56:26.603Z,10.90
2023-05-14T05:58:53.310Z,10.90
2023-05-14T06:01:20.119Z,10.90
2023-05-14T06:03:48.542Z,11.10
2023-05-14T06:06:15.645Z,11.10
2023-05-14T06:08:42.441Z,11.10
2023-05-14T06:11:10.534Z,11.10
2023-05-14T06:13:37.287Z,11.30
2023-05-14T06:16:04.230Z,11.30
2023-05-14T06:18:31.144Z,11.40
2023-05-14T06:21:00.003Z,11.30
2023-05-14T06:23:26.977Z,11.30
2023-05-14T06:25:53.790Z,11.50
2023-05-14T06:28:20.553Z,11.60
2023-05-14T06:30:50.265Z,11.70
2023-05-14T06:33:19.350Z,11.80
2023-05-14T06:35:47.247Z,11.80
2023-05-14T06:38:14.295Z,11.90
2023-05-14T06:40:41.104Z,12.10
2023-05-14T06:43:07.883Z,12.20
2023-05-14T06:45:36.010Z,12.40
2023-05-14T06:48:02.942Z,12.60
2023-05-14T06:50:29.818Z,12.70
2023-05-14T06:52:57.066Z,12.60
2023-05-14T06:55:23.799Z,12.70
2023-05-14T06:57:51.038Z,12.70
2023-05-14T07:00:18.205Z,12.80
2023-05-14T07:02:45.121Z,12.80
2023-05-14T07:05:12.314Z,12.90
2023-05-14T07:07:39.092Z,13.00
2023-05-14T07:10:06.590Z,13.10
2023-05-14T07:12:33.320Z,13.20
2023-05-14T07:15:00.043Z,13.10
2023-05-14T07:17:26.856Z,13.20
2023-05-14T07:19:55.614Z,13.40
2023-05-14T07:22:22.741Z,13.40
2023-05-14T07:24:50.138Z,13.50
2023-05-14T07:27:19.666Z,13.40
2023-05-14T07:29:46.529Z,13.60
2023-05-14T07:32:15.448Z,13.60
2023-05-14T07:34:43.053Z,13.60
2023-05-14T07:37:09.840Z,13.60
2023-05-14T07:39:36.700Z,13.60
2023-05-14T07:42:04.446Z,13.80
2023-05-14T07:44:31.197Z,13.90
2023-05-14T07:46:58.409Z,14.20
2023-05-14T07:49:25.382Z,14.40
2023-05-14T07:51:52.226Z,14.40
2023-05-14T07:54:18.976Z,14.10
2023-05-14T07:56:45.792Z,14.10
2023-05-14T07:59:13.026Z,14.40
2023-05-14T08:01:39.770Z,14.40
2023-05-14T08:04:06.890Z,14.40
2023-05-14T08:06:34.112Z,14.40
2023-05-14T08:09:00.894Z,14.50
2023-05-14T08:11:27.622Z,14.50
2023-05-14T08:13:54.416Z,14.50
2023-05-14T08:16:21.244Z,14.50
2023-05-14T08:18:48.649Z,14.60
2023-05-14T08:21:15.380Z,14.60
2023-05-14T08:23:42.135Z,14.80
2023-05-14T08:26:08.928Z,14.90
2023-05-14T08:28:35.751Z,15.00
2023-05-14T08:31:02.698Z,14.90
2023-05-14T08:33:29.586Z,15.00
2023-05-14T08:35:58.288Z,15.00
2023-05-14T08:38:25.155Z,15.00
2023-05-14T08:41:00.644Z,15.00
2023-05-14T08:43:34.403Z,15.00
2023-05-14T08:46:04.029Z,15.10
2023-05-14T08:48:33.815Z,14.90
2023-05-14T08:51:02.023Z,15.00
2023-05-14T08:53:29.086Z,15.10
2023-05-14T08:55:56.241Z,15.00
2023-05-14T08:58:25.754Z,15.00
2023-05-14T09:00:53.902Z,15.10
2023-05-14T09:03:22.164Z,15.20
2023-05-14T09:05:51.991Z,15.20
2023-05-14T09:08:19.763Z,15.20
2023-05-14T09:10:47.031Z,15.30
2023-05-14T09:13:14.659Z,15.30
2023-05-14T09:15:41.675Z,15.40
2023-05-14T09:18:08.674Z,15.60
2023-05-14T09:20:35.688Z,15.70
2023-05-14T09:23:03.112Z,15.60
2023-05-14T09:25:33.197Z,15.70
2023-05-14T09:28:00.198Z,15.70
2023-05-14T09:30:30.381Z,15.70
2023-05-14T09:32:57.184Z,15.80
2023-05-14T09:35:24.968Z,15.90
2023-05-14T09:37:54.081Z,16.00
2023-05-14T09:40:23.305Z,16.00
2023-05-14T09:42:50.867Z,16.10
2023-05-14T09:45:17.950Z,16.00
2023-05-14T09:47:45.272Z,16.10
2023-05-14T09:50:12.776Z,16.00
2023-05-14T09:52:39.718Z,15.90
2023-05-14T09:55:07.064Z,15.90
2023-05-14T09:57:34.577Z,15.90
2023-05-14T10:00:01.505Z,15.90
2023-05-14T10:02:41.067Z,16.00
2023-05-14T10:05:08.917Z,15.90
2023-05-14T10:07:49.699Z,15.90
2023-05-14T10:10:19.427Z,15.70
2023-05-14T10:13:12.508Z,15.70
2023-05-14T10:15:54.535Z,15.80
2023-05-14T10:18:23.611Z,15.90
2023-05-14T10:21:11.022Z,15.80
2023-05-14T10:23:38.991Z,15.90
2023-05-14T10:26:06.512Z,15.90
2023-05-14T10:28:34.388Z,15.90
2023-05-14T10:31:01.762Z,16.00
2023-05-14T10:33:28.783Z,15.90
2023-05-14T10:36:03.275Z,15.90
2023-05-14T10:38:32.706Z,16.00
2023-05-14T10:41:05.992Z,16.00
2023-05-14T10:43:38.442Z,16.00
2023-05-14T10:46:06.545Z,16.00
2023-05-14T10:48:34.024Z,16.20
2023-05-14T10:51:02.550Z,16.10
2023-05-14T10:53:35.632Z,16.10
2023-05-14T10:56:15.246Z,16.30
2023-05-14T10:58:44.348Z,16.30
2023-05-14T11:01:13.506Z,16.40
2023-05-14T11:03:47.017Z,16.30
2023-05-14T11:06:15.847Z,16.40
2023-05-14T11:08:42.959Z,16.40
2023-05-14T11:11:10.734Z,16.50
2023-05-14T11:13:37.960Z,16.40
2023-05-14T11:16:19.018Z,16.50
2023-05-14T11:18:53.795Z,16.50
2023-05-14T11:21:20.809Z,16.50
2023-05-14T11:23:48.228Z,16.50
2023-05-14T11:26:15.030Z,16.60
2023-05-14T11:28:41.890Z,16.70
2023-05-14T11:31:09.613Z,16.70
2023-05-14T11:33:36.555Z,16.80
2023-05-14T11:36:04.312Z,16.90
2023-05-14T11:38:31.158Z,17.00
2023-05-14T11:40:59.512Z,17.10
2023-05-14T11:43:29.129Z,17.30
2023-05-14T11:45:56.872Z,17.40
2023-05-14T11:48:24.205Z,17.60
2023-05-14T11:50:52.496Z,17.70
2023-05-14T11:53:27.425Z,18.00
2023-05-14T11:55:57.761Z,17.90
2023-05-14T11:58:25.471Z,18.00
2023-05-14T12:00:53.775Z,18.10
2023-05-14T12:03:25.693Z,17.90
2023-05-14T12:05:57.883Z,18.40
2023-05-14T12:08:31.260Z,18.70
2023-05-14T12:11:01.573Z,18.80
2023-05-14T12:13:30.796Z,19.00
2023-05-14T12:16:00.666Z,19.10
2023-05-14T12:18:29.321Z,19.50
2023-05-14T12:20:56.475Z,19.80
2023-05-14T12:23:30.264Z,19.60
2023-05-14T12:26:06.496Z,19.10
2023-05-14T12:28:36.951Z,18.90
2023-05-14T12:31:04.980Z,18.90
2023-05-14T12:33:32.170Z,19.00
2023-05-14T12:36:10.074Z,19.40
2023-05-14T12:38:46.997Z,19.50
2023-05-14T12:41:13.938Z,19.90
2023-05-14T12:43:43.667Z,20.00
2023-05-14T12:46:10.856Z,19.80
2023-05-14T12:48:37.571Z,19.70
2023-05-14T12:51:04.289Z,19.80
2023-05-14T12:53:31.128Z,19.40
2023-05-14T12:55:57.945Z,19.40
2023-05-14T12:58:24.704Z,19.30
2023-05-14T13:00:51.681Z,19.70
2023-05-14T13:03:18.801Z,20.10
2023-05-14T13:05:45.608Z,20.30
2023-05-14T13:08:14.775Z,20.50
2023-05-14T13:10:41.756Z,20.70
2023-05-14T13:13:08.803Z,20.80
2023-05-14T13:15:36.779Z,20.60
2023-05-14T13:18:04.429Z,20.20
2023-05-14T13:20:31.266Z,19.80
2023-05-14T13:22:58.176Z,19.70
2023-05-14T13:25:25.342Z,20.00
2023-05-14T13:27:52.393Z,20.20
2023-05-14T13:30:19.999Z,20.60
2023-05-14T13:32:47.115Z,20.60
2023-05-14T13:35:15.075Z,20.70
2023-05-14T13:37:43.810Z,20.80
2023-05-14T13:40:11.133Z,20.90
2023-05-14T13:42:39.812Z,20.70
2023-05-14T13:45:07.207Z,20.40
2023-05-14T13:47:34.338Z,20.30
2023-05-14T13:50:01.271Z,20.40
2023-05-14T13:52:28.014Z,20.30
2023-05-14T13:54:54.737Z,20.40
2023-05-14T13:57:22.284Z,20.50
2023-05-14T13:59:49.097Z,20.80
2023-05-14T14:02:15.960Z,21.00
2023-05-14T14:04:42.926Z,21.10
2023-05-14T14:07:09.890Z,21.30
2023-05-14T14:09:36.975Z,21.40
2023-05-14T14:12:04.603Z,21.60
2023-05-14T14:14:31.577Z,21.30
2023-05-14T14:16:58.723Z,21.40
2023-05-14T14:19:25.489Z,21.50
2023-05-14T14:21:52.526Z,21.50
2023-05-14T14:24:19.555Z,21.40
2023-05-14T14:26:46.765Z,21.70
2023-05-14T14:29:13.861Z,22.00
2023-05-14T14:31:40.619Z,21.80
2023-05-14T14:34:07.446Z,21.70
2023-05-14T14:36:34.250Z,22.00
2023-05-14T14:39:01.159Z,21.50
2023-05-14T14:41:27.973Z,21.70
2023-05-14T14:43:54.765Z,21.60
2023-05-14T14:46:21.662Z,21.70
2023-05-14T14:48:48.443Z,21.80
2023-05-14T14:51:15.369Z,21.80
2023-05-14T14:53:42.665Z,21.90
2023-05-14T14:56:09.442Z,22.00
2023-05-14T14:58:36.813Z,22.00
2023-05-14T15:01:03.738Z,22.00
2023-05-14T15:03:31.797Z,22.20
2023-05-14T15:05:58.949Z,22.20
2023-05-14T15:08:27.617Z,22.10
2023-05-14T15:10:55.909Z,21.90
2023-05-14T15:13:23.284Z,22.20
2023-05-14T15:15:51.710Z,22.20
2023-05-14T15:18:18.605Z,22.00
2023-05-14T15:20:45.374Z,22.00
2023-05-14T15:23:12.151Z,21.80
2023-05-14T15:25:38.917Z,21.90
2023-05-14T15:28:08.553Z,21.90
2023-05-14T15:30:35.603Z,22.10
2023-05-14T15:33:02.639Z,21.90
2023-05-14T15:35:29.520Z,22.00
2023-05-14T15:37:59.558Z,22.10
2023-05-14T15:40:27.638Z,21.90
2023-05-14T15:42:54.931Z,21.60
2023-05-14T15:45:21.858Z,21.80
2023-05-14T15:47:48.727Z,21.50
2023-05-14T15:50:15.739Z,21.30
2023-05-14T15:52:42.698Z,21.50
2023-05-14T15:55:10.038Z,21.60
2023-05-14T15:57:36.793Z,21.70
2023-05-14T16:00:13.033Z,21.70
2023-05-14T16:02:40.465Z,21.30
2023-05-14T16:05:08.598Z,21.60
2023-05-14T16:07:36.710Z,21.30
2023-05-14T16:10:04.110Z,21.10
2023-05-14T16:12:31.024Z,21.00
2023-05-14T16:14:57.820Z,21.10
2023-05-14T16:17:26.557Z,21.30
2023-05-14T16:19:56.059Z,21.40
2023-05-14T16:22:23.444Z,21.40
2023-05-14T16:24:50.271Z,21.50
2023-05-14T16:27:19.034Z,21.40
2023-05-14T16:29:45.961Z,21.60
2023-05-14T16:32:12.932Z,21.40
2023-05-14T16:34:39.844Z,21.50
2023-05-14T16:37:06.699Z,21.00
2023-05-14T16:39:33.634Z,20.90
2023-05-14T16:42:01.173Z,20.80
2023-05-14T16:44:28.222Z,20.80
2023-05-14T16:46:54.982Z,20.70
2023-05-14T16:49:22.755Z,20.50
2023-05-14T16:51:49.569Z,20.50
2023-05-14T16:54:16.666Z,20.40
2023-05-14T16:56:48.426Z,20.30
2023-05-14T16:59:15.944Z,20.30
2023-05-14T17:01:43.407Z,20.20
2023-05-14T17:04:10.487Z,20.20
2023-05-14T17:06:37.279Z,20.10
2023-05-14T17:09:04.147Z,20.20
2023-05-14T17:11:30.926Z,20.20
2023-05-14T17:13:57.650Z,20.10
2023-05-14T17:16:25.270Z,20.00
2023-05-14T17:18:52.379Z,20.00
2023-05-14T17:21:19.377Z,20.00
2023-05-14T17:23:46.111Z,19.80
2023-05-14T17:26:12.842Z,19.70
2023-05-14T17:28:39.596Z,19.60
2023-05-14T17:31:06.841Z,19.50
2023-05-14T17:33:33.618Z,19.50
2023-05-14T17:36:00.503Z,19.50
2023-05-14T17:38:27.526Z,19.40
2023-05-14T17:40:54.313Z,19.40
2023-05-14T17:43:21.065Z,19.20
2023-05-14T17:48:19.638Z,19.10
2023-05-14T17:50:46.468Z,19.00
2023-05-14T17:53:13.817Z,19.00
2023-05-14T17:55:43.544Z,19.00
2023-05-14T17:58:13.331Z,18.80
2023-05-14T18:00:41.155Z,18.70
2023-05-14T18:03:08.302Z,18.60
2023-05-14T18:05:35.365Z,18.40
2023-05-14T18:08:02.570Z,18.30
2023-05-14T18:10:29.737Z,18.30
2023-05-14T18:12:56.768Z,18.20
2023-05-14T18:15:25.570Z,18.00
2023-05-14T18:17:53.056Z,18.10
2023-05-14T18:20:20.457Z,18.20
2023-05-14T18:22:47.182Z,17.90
2023-05-14T18:25:14.011Z,17.90
2023-05-14T18:27:44.504Z,17.80
2023-05-14T18:30:17.152Z,17.70
2023-05-14T18:32:44.866Z,17.60
2023-05-14T18:35:12.892Z,17.50
2023-05-14T18:37:40.117Z,17.40
2023-05-14T18:40:07.550Z,17.50
2023-05-14T18:42:35.072Z,17.50
2023-05-14T18:45:02.286Z,17.40
2023-05-14T18:47:29.635Z,17.20
2023-05-14T18:49:58.982Z,17.10
2023-05-14T18:52:26.982Z,17.10
2023-05-14T18:54:56.964Z,17.10
2023-05-14T18:57:24.308Z,17.00
2023-05-14T18:59:51.088Z,16.90
2023-05-14T19:02:17.810Z,16.80
2023-05-14T19:04:52.255Z,16.70
2023-05-14T19:07:20.595Z,16.70
2023-05-14T19:09:47.616Z,16.70
2023-05-14T19:12:14.916Z,16.60
2023-05-14T19:14:42.118Z,16.80
2023-05-14T19:17:08.956Z,16.70
2023-05-14T19:19:36.827Z,16.60
2023-05-14T19:22:04.007Z,16.40
2023-05-14T19:24:31.119Z,16.40
2023-05-14T19:26:58.050Z,16.40
2023-05-14T19:29:25.003Z,16.20
2023-05-14T19:31:52.186Z,16.20
2023-05-14T19:34:19.332Z,16.20
2023-05-14T19:36:46.125Z,16.20
2023-05-14T19:39:12.975Z,16.20
2023-05-14T19:41:40.002Z,16.30
2023-05-14T19:44:06.819Z,16.20
2023-05-14T19:46:33.885Z,15.90
2023-05-14T19:49:00.764Z,15.90
2023-05-14T19:51:27.610Z,15.70
2023-05-14T19:53:54.503Z,15.50
2023-05-14T19:56:21.664Z,15.60
2023-05-14T19:58:48.602Z,15.70
2023-05-14T20:01:18.376Z,15.70
2023-05-14T20:03:46.157Z,15.60
2023-05-14T20:06:12.975Z,15.40
2023-05-14T20:08:40.423Z,15.50
2023-05-14T20:11:07.398Z,15.70
2023-05-14T20:13:36.012Z,15.60
2023-05-14T20:16:03.029Z,15.40
2023-05-14T20:18:29.981Z,15.60
2023-05-14T20:20:56.895Z,15.60
2023-05-14T20:23:23.992Z,15.50
2023-05-14T20:25:51.642Z,15.40
2023-05-14T20:28:18.445Z,15.30
2023-05-14T20:30:45.475Z,15.10
2023-05-14T20:33:13.404Z,15.20
2023-05-14T20:35:43.745Z,15.20
2023-05-14T20:38:12.627Z,15.20
2023-05-14T20:40:40.149Z,15.10
2023-05-14T20:43:07.023Z,15.20
2023-05-14T20:45:33.829Z,15.30
2023-05-14T20:48:01.074Z,15.30
2023-05-14T20:50:28.281Z,15.30
2023-05-14T20:52:55.596Z,15.20
2023-05-14T20:55:22.832Z,15.30
2023-05-14T20:57:49.919Z,15.40
2023-05-14T21:00:17.434Z,15.40
2023-05-14T21:02:44.523Z,15.40
2023-05-14T21:05:11.758Z,15.50
2023-05-14T21:07:39.374Z,15.40
2023-05-14T21:10:08.559Z,15.40
2023-05-14T21:12:35.473Z,15.20
2023-05-14T21:15:02.241Z,15.20
2023-05-14T21:17:29.316Z,15.00
2023-05-14T21:19:56.041Z,15.10
2023-05-14T21:22:23.190Z,15.10
2023-05-14T21:24:50.927Z,15.10
2023-05-14T21:27:17.790Z,15.10
2023-05-14T21:29:47.391Z,15.10
2023-05-14T21:32:14.145Z,15.00
2023-05-14T21:34:40.942Z,15.00
2023-05-14T21:37:07.814Z,15.00
2023-05-14T21:39:34.646Z,15.00
2023-05-14T21:42:01.386Z,14.80
2023-05-14T21:44:28.068Z,14.70
2023-05-14T21:46:55.611Z,14.90
2023-05-14T21:49:22.321Z,14.80
2023-05-14T21:51:53.038Z,14.80
2023-05-14T21:54:21.005Z,14.80
2023-05-14T21:56:48.300Z,14.60
2023-05-14T21:59:15.225Z,14.70
2023-05-14T22:01:56.102Z,14.70
2023-05-14T22:04:28.769Z,14.50
2023-05-14T22:06:55.969Z,14.50
2023-05-14T22:09:22.819Z,14.60
2023-05-14T22:11:49.682Z,14.30
2023-05-14T22:14:16.419Z,14.20
2023-05-14T22:16:43.468Z,14.20
2023-05-14T22:19:11.426Z,14.20
2023-05-14T22:21:38.215Z,14.20
2023-05-14T22:24:05.254Z,14.00
2023-05-14T22:26:32.080Z,14.00
2023-05-14T22:28:59.956Z,14.10
2023-05-14T22:31:26.683Z,14.20
2023-05-14T22:33:53.690Z,14.10
2023-05-14T22:36:20.517Z,14.00
2023-05-14T22:38:47.978Z,13.50
2023-05-14T22:41:17.370Z,13.40
2023-05-14T22:43:44.255Z,13.60
2023-05-14T22:46:11.149Z,13.70
2023-05-14T22:48:37.921Z,13.30
2023-05-14T22:51:04.856Z,13.30
2023-05-14T22:53:31.682Z,13.30
2023-05-14T22:55:58.682Z,13.20
2023-05-14T22:58:25.429Z,13.20
2023-05-14T23:00:52.372Z,13.30
2023-05-14T23:03:19.739Z,13.40
2023-05-14T23:05:46.904Z,13.20
2023-05-14T23:08:13.695Z,13.10
2023-05-14T23:10:40.495Z,12.90
2023-05-14T23:13:07.261Z,12.90
2023-05-14T23:15:34.231Z,13.00
2023-05-14T23:18:01.171Z,12.90
2023-05-14T23:20:28.098Z,12.80
2023-05-14T23:22:54.873Z,12.80
2023-05-14T23:25:21.652Z,12.80
2023-05-14T23:27:49.957Z,12.70
2023-05-14T23:30:16.795Z,12.80
2023-05-14T23:32:43.573Z,12.60
2023-05-14T23:35:10.611Z,12.50
2023-05-14T23:37:41.754Z,12.40
2023-05-14T23:40:09.601Z,12.50
2023-05-14T23:42:38.039Z,12.50
2023-05-14T23:45:05.311Z,12.50
2023-05-14T23:47:32.361Z,12.30
2023-05-14T23:50:25.261Z,12.40
2023-05-14T23:52:53.052Z,12.30
2023-05-14T23:55:20.930Z,12.40
2023-05-14T23:57:48.846Z,12.30
